sensor_id;sensor_type;location;lat;lon;timestamp;P1;durP1;ratioP1;P2;durP2;ratioP2
64199;SDS011;50516;52.272;5.136;2023-06-26T00:02:16;8.80;;;6.45;;
64199;SDS011;50516;52.272;5.136;2023-06-26T00:04:47;7.85;;;6.63;;
64199;SDS011;50516;52.272;5.136;2023-06-26T00:07:12;8.30;;;6.90;;
64199;SDS011;50516;52.272;5.136;2023-06-26T00:09:38;8.32;;;7.10;;
64199;SDS011;50516;52.272;5.136;2023-06-26T00:12:03;9.15;;;7.55;;
64199;SDS011;50516;52.272;5.136;2023-06-26T00:14:29;10.45;;;7.63;;
64199;SDS011;50516;52.272;5.136;2023-06-26T00:16:54;8.30;;;6.85;;
64199;SDS011;50516;52.272;5.136;2023-06-26T00:19:20;13.07;;;6.85;;
64199;SDS011;50516;52.272;5.136;2023-06-26T00:21:45;10.57;;;7.28;;
64199;SDS011;50516;52.272;5.136;2023-06-26T00:24:15;9.52;;;6.70;;
64199;SDS011;50516;52.272;5.136;2023-06-26T00:26:41;10.85;;;7.57;;
64199;SDS011;50516;52.272;5.136;2023-06-26T00:29:09;8.63;;;6.50;;
64199;SDS011;50516;52.272;5.136;2023-06-26T00:31:35;8.85;;;7.30;;
64199;SDS011;50516;52.272;5.136;2023-06-26T00:34:03;9.43;;;7.00;;
64199;SDS011;50516;52.272;5.136;2023-06-26T00:36:29;8.93;;;7.07;;
64199;SDS011;50516;52.272;5.136;2023-06-26T00:38:57;8.18;;;6.50;;
64199;SDS011;50516;52.272;5.136;2023-06-26T00:41:23;8.15;;;6.53;;
64199;SDS011;50516;52.272;5.136;2023-06-26T00:43:48;10.48;;;6.97;;
64199;SDS011;50516;52.272;5.136;2023-06-26T00:46:14;8.98;;;6.80;;
64199;SDS011;50516;52.272;5.136;2023-06-26T00:48:41;8.85;;;6.53;;
64199;SDS011;50516;52.272;5.136;2023-06-26T00:51:15;8.73;;;6.93;;
64199;SDS011;50516;52.272;5.136;2023-06-26T00:53:41;8.77;;;6.75;;
64199;SDS011;50516;52.272;5.136;2023-06-26T00:56:09;7.97;;;6.07;;
64199;SDS011;50516;52.272;5.136;2023-06-26T00:58:36;8.32;;;6.82;;
64199;SDS011;50516;52.272;5.136;2023-06-26T01:01:01;8.07;;;7.28;;
64199;SDS011;50516;52.272;5.136;2023-06-26T01:03:28;7.75;;;6.68;;
64199;SDS011;50516;52.272;5.136;2023-06-26T01:05:55;10.43;;;8.05;;
64199;SDS011;50516;52.272;5.136;2023-06-26T01:08:23;7.97;;;6.50;;
64199;SDS011;50516;52.272;5.136;2023-06-26T01:10:50;9.70;;;7.18;;
64199;SDS011;50516;52.272;5.136;2023-06-26T01:13:16;19.88;;;7.95;;
64199;SDS011;50516;52.272;5.136;2023-06-26T01:15:42;12.10;;;7.63;;
64199;SDS011;50516;52.272;5.136;2023-06-26T01:18:08;14.27;;;7.78;;
64199;SDS011;50516;52.272;5.136;2023-06-26T01:20:35;10.27;;;6.43;;
64199;SDS011;50516;52.272;5.136;2023-06-26T01:28:32;8.68;;;6.90;;
64199;SDS011;50516;52.272;5.136;2023-06-26T01:30:59;11.32;;;6.97;;
64199;SDS011;50516;52.272;5.136;2023-06-26T01:33:26;13.48;;;6.65;;
64199;SDS011;50516;52.272;5.136;2023-06-26T01:35:52;8.82;;;5.68;;
64199;SDS011;50516;52.272;5.136;2023-06-26T01:38:19;8.50;;;5.85;;
64199;SDS011;50516;52.272;5.136;2023-06-26T01:40:48;12.23;;;6.22;;
64199;SDS011;50516;52.272;5.136;2023-06-26T01:47:11;12.40;;;5.80;;
64199;SDS011;50516;52.272;5.136;2023-06-26T01:54:53;11.57;;;6.35;;
64199;SDS011;50516;52.272;5.136;2023-06-26T01:57:34;11.65;;;6.03;;
64199;SDS011;50516;52.272;5.136;2023-06-26T02:00:02;9.10;;;5.60;;
64199;SDS011;50516;52.272;5.136;2023-06-26T02:02:29;10.57;;;5.70;;
64199;SDS011;50516;52.272;5.136;2023-06-26T02:04:57;11.93;;;6.05;;
64199;SDS011;50516;52.272;5.136;2023-06-26T02:07:23;12.38;;;6.18;;
64199;SDS011;50516;52.272;5.136;2023-06-26T02:09:51;17.73;;;5.60;;
64199;SDS011;50516;52.272;5.136;2023-06-26T02:12:17;12.63;;;6.45;;
64199;SDS011;50516;52.272;5.136;2023-06-26T02:14:43;11.13;;;5.78;;
64199;SDS011;50516;52.272;5.136;2023-06-26T02:17:09;13.27;;;6.03;;
64199;SDS011;50516;52.272;5.136;2023-06-26T02:19:34;11.40;;;6.65;;
64199;SDS011;50516;52.272;5.136;2023-06-26T02:22:00;14.32;;;6.75;;
64199;SDS011;50516;52.272;5.136;2023-06-26T02:24:27;13.82;;;6.68;;
64199;SDS011;50516;52.272;5.136;2023-06-26T02:26:55;12.93;;;5.97;;
64199;SDS011;50516;52.272;5.136;2023-06-26T02:29:22;14.65;;;7.00;;
64199;SDS011;50516;52.272;5.136;2023-06-26T02:31:48;14.48;;;5.70;;
64199;SDS011;50516;52.272;5.136;2023-06-26T02:34:14;14.38;;;6.15;;
64199;SDS011;50516;52.272;5.136;2023-06-26T02:36:40;12.68;;;6.05;;
64199;SDS011;50516;52.272;5.136;2023-06-26T02:39:08;14.55;;;6.50;;
64199;SDS011;50516;52.272;5.136;2023-06-26T02:41:34;17.58;;;6.35;;
64199;SDS011;50516;52.272;5.136;2023-06-26T02:44:03;13.07;;;6.10;;
64199;SDS011;50516;52.272;5.136;2023-06-26T02:46:30;17.23;;;6.47;;
64199;SDS011;50516;52.272;5.136;2023-06-26T02:48:55;17.52;;;7.05;;
64199;SDS011;50516;52.272;5.136;2023-06-26T02:51:21;21.25;;;7.45;;
64199;SDS011;50516;52.272;5.136;2023-06-26T02:53:47;14.13;;;6.40;;
64199;SDS011;50516;52.272;5.136;2023-06-26T02:56:15;12.82;;;6.60;;
64199;SDS011;50516;52.272;5.136;2023-06-26T02:58:41;20.40;;;7.00;;
64199;SDS011;50516;52.272;5.136;2023-06-26T03:01:07;21.13;;;7.18;;
64199;SDS011;50516;52.272;5.136;2023-06-26T03:03:33;21.50;;;7.18;;
64199;SDS011;50516;52.272;5.136;2023-06-26T03:06:05;17.45;;;6.95;;
64199;SDS011;50516;52.272;5.136;2023-06-26T03:08:36;16.75;;;6.78;;
64199;SDS011;50516;52.272;5.136;2023-06-26T03:11:02;20.35;;;6.97;;
64199;SDS011;50516;52.272;5.136;2023-06-26T03:13:28;20.05;;;8.02;;
64199;SDS011;50516;52.272;5.136;2023-06-26T03:15:53;15.77;;;6.30;;
64199;SDS011;50516;52.272;5.136;2023-06-26T03:18:19;22.05;;;7.97;;
64199;SDS011;50516;52.272;5.136;2023-06-26T03:20:45;17.58;;;6.78;;
64199;SDS011;50516;52.272;5.136;2023-06-26T03:23:11;21.00;;;7.32;;
64199;SDS011;50516;52.272;5.136;2023-06-26T03:25:36;16.98;;;7.03;;
64199;SDS011;50516;52.272;5.136;2023-06-26T03:28:01;21.95;;;7.38;;
64199;SDS011;50516;52.272;5.136;2023-06-26T03:30:27;19.58;;;7.57;;
64199;SDS011;50516;52.272;5.136;2023-06-26T03:32:52;13.45;;;6.82;;
64199;SDS011;50516;52.272;5.136;2023-06-26T03:35:18;17.30;;;7.05;;
64199;SDS011;50516;52.272;5.136;2023-06-26T03:37:44;18.13;;;7.32;;
64199;SDS011;50516;52.272;5.136;2023-06-26T03:40:12;22.90;;;7.25;;
64199;SDS011;50516;52.272;5.136;2023-06-26T03:42:38;23.15;;;6.95;;
64199;SDS011;50516;52.272;5.136;2023-06-26T03:45:04;22.25;;;7.43;;
64199;SDS011;50516;52.272;5.136;2023-06-26T03:47:30;14.70;;;6.45;;
64199;SDS011;50516;52.272;5.136;2023-06-26T03:49:58;19.02;;;7.10;;
64199;SDS011;50516;52.272;5.136;2023-06-26T03:52:26;18.45;;;6.75;;
64199;SDS011;50516;52.272;5.136;2023-06-26T03:54:51;24.00;;;6.85;;
64199;SDS011;50516;52.272;5.136;2023-06-26T03:57:17;18.08;;;6.93;;
64199;SDS011;50516;52.272;5.136;2023-06-26T03:59:42;19.65;;;7.90;;
64199;SDS011;50516;52.272;5.136;2023-06-26T04:02:07;22.08;;;7.30;;
64199;SDS011;50516;52.272;5.136;2023-06-26T04:04:33;15.68;;;6.38;;
64199;SDS011;50516;52.272;5.136;2023-06-26T04:06:58;20.05;;;7.03;;
64199;SDS011;50516;52.272;5.136;2023-06-26T04:09:27;21.17;;;6.93;;
64199;SDS011;50516;52.272;5.136;2023-06-26T04:11:52;14.02;;;6.13;;
64199;SDS011;50516;52.272;5.136;2023-06-26T04:14:18;14.30;;;5.60;;
64199;SDS011;50516;52.272;5.136;2023-06-26T04:16:43;16.45;;;7.28;;
64199;SDS011;50516;52.272;5.136;2023-06-26T04:19:09;11.98;;;6.32;;
64199;SDS011;50516;52.272;5.136;2023-06-26T04:21:35;14.68;;;6.15;;
64199;SDS011;50516;52.272;5.136;2023-06-26T04:24:00;17.52;;;6.57;;
64199;SDS011;50516;52.272;5.136;2023-06-26T04:26:26;17.73;;;6.65;;
64199;SDS011;50516;52.272;5.136;2023-06-26T04:28:52;15.65;;;6.30;;
64199;SDS011;50516;52.272;5.136;2023-06-26T04:31:18;14.63;;;5.80;;
64199;SDS011;50516;52.272;5.136;2023-06-26T04:33:43;13.23;;;6.15;;
64199;SDS011;50516;52.272;5.136;2023-06-26T04:36:09;12.90;;;5.28;;
64199;SDS011;50516;52.272;5.136;2023-06-26T04:38:34;10.35;;;5.30;;
64199;SDS011;50516;52.272;5.136;2023-06-26T04:41:00;12.48;;;6.03;;
64199;SDS011;50516;52.272;5.136;2023-06-26T04:43:26;12.85;;;5.20;;
64199;SDS011;50516;52.272;5.136;2023-06-26T04:45:51;9.65;;;4.72;;
64199;SDS011;50516;52.272;5.136;2023-06-26T04:48:17;9.05;;;5.22;;
64199;SDS011;50516;52.272;5.136;2023-06-26T04:50:42;9.85;;;5.00;;
64199;SDS011;50516;52.272;5.136;2023-06-26T04:53:08;10.48;;;4.80;;
64199;SDS011;50516;52.272;5.136;2023-06-26T04:55:33;8.18;;;4.80;;
64199;SDS011;50516;52.272;5.136;2023-06-26T04:57:59;11.80;;;5.10;;
64199;SDS011;50516;52.272;5.136;2023-06-26T05:00:24;9.95;;;4.68;;
64199;SDS011;50516;52.272;5.136;2023-06-26T05:02:50;12.43;;;5.43;;
64199;SDS011;50516;52.272;5.136;2023-06-26T05:05:25;10.57;;;4.50;;
64199;SDS011;50516;52.272;5.136;2023-06-26T05:07:52;7.88;;;4.57;;
64199;SDS011;50516;52.272;5.136;2023-06-26T05:10:17;9.55;;;4.45;;
64199;SDS011;50516;52.272;5.136;2023-06-26T05:12:43;9.50;;;4.70;;
64199;SDS011;50516;52.272;5.136;2023-06-26T05:15:08;9.20;;;4.60;;
64199;SDS011;50516;52.272;5.136;2023-06-26T05:17:34;9.45;;;4.22;;
64199;SDS011;50516;52.272;5.136;2023-06-26T05:19:59;7.18;;;4.22;;
64199;SDS011;50516;52.272;5.136;2023-06-26T05:22:25;11.05;;;4.53;;
64199;SDS011;50516;52.272;5.136;2023-06-26T05:24:51;10.23;;;5.10;;
64199;SDS011;50516;52.272;5.136;2023-06-26T05:27:20;8.63;;;4.18;;
64199;SDS011;50516;52.272;5.136;2023-06-26T05:29:47;7.20;;;3.97;;
64199;SDS011;50516;52.272;5.136;2023-06-26T05:32:13;10.07;;;4.28;;
64199;SDS011;50516;52.272;5.136;2023-06-26T05:34:42;8.85;;;4.40;;
64199;SDS011;50516;52.272;5.136;2023-06-26T05:37:20;11.35;;;4.18;;
64199;SDS011;50516;52.272;5.136;2023-06-26T05:39:46;8.90;;;3.63;;
64199;SDS011;50516;52.272;5.136;2023-06-26T05:42:12;9.50;;;4.07;;
64199;SDS011;50516;52.272;5.136;2023-06-26T05:44:38;8.23;;;3.80;;
64199;SDS011;50516;52.272;5.136;2023-06-26T05:47:03;6.43;;;3.47;;
64199;SDS011;50516;52.272;5.136;2023-06-26T05:49:29;7.32;;;3.13;;
64199;SDS011;50516;52.272;5.136;2023-06-26T05:51:54;7.70;;;3.95;;
64199;SDS011;50516;52.272;5.136;2023-06-26T05:54:20;8.98;;;3.67;;
64199;SDS011;50516;52.272;5.136;2023-06-26T05:56:46;8.98;;;4.10;;
64199;SDS011;50516;52.272;5.136;2023-06-26T05:59:13;8.75;;;3.95;;
64199;SDS011;50516;52.272;5.136;2023-06-26T06:01:40;9.95;;;3.75;;
64199;SDS011;50516;52.272;5.136;2023-06-26T06:04:06;8.02;;;4.00;;
64199;SDS011;50516;52.272;5.136;2023-06-26T06:06:32;13.15;;;4.07;;
64199;SDS011;50516;52.272;5.136;2023-06-26T06:08:57;8.10;;;3.20;;
64199;SDS011;50516;52.272;5.136;2023-06-26T06:11:22;7.88;;;3.55;;
64199;SDS011;50516;52.272;5.136;2023-06-26T06:13:48;9.48;;;3.50;;
64199;SDS011;50516;52.272;5.136;2023-06-26T06:16:13;7.93;;;3.85;;
64199;SDS011;50516;52.272;5.136;2023-06-26T06:18:40;7.40;;;3.58;;
64199;SDS011;50516;52.272;5.136;2023-06-26T06:21:05;10.73;;;3.92;;
64199;SDS011;50516;52.272;5.136;2023-06-26T06:23:31;6.15;;;3.53;;
64199;SDS011;50516;52.272;5.136;2023-06-26T06:25:56;8.50;;;3.55;;
64199;SDS011;50516;52.272;5.136;2023-06-26T06:28:21;6.95;;;4.03;;
64199;SDS011;50516;52.272;5.136;2023-06-26T06:30:50;8.45;;;3.78;;
64199;SDS011;50516;52.272;5.136;2023-06-26T06:33:15;7.40;;;4.15;;
64199;SDS011;50516;52.272;5.136;2023-06-26T06:35:40;5.63;;;3.85;;
64199;SDS011;50516;52.272;5.136;2023-06-26T06:38:06;5.68;;;3.70;;
64199;SDS011;50516;52.272;5.136;2023-06-26T06:40:31;9.43;;;3.50;;
64199;SDS011;50516;52.272;5.136;2023-06-26T06:42:57;9.27;;;4.15;;
64199;SDS011;50516;52.272;5.136;2023-06-26T06:45:25;9.82;;;3.67;;
64199;SDS011;50516;52.272;5.136;2023-06-26T06:47:50;7.00;;;3.58;;
64199;SDS011;50516;52.272;5.136;2023-06-26T06:50:18;7.13;;;3.65;;
64199;SDS011;50516;52.272;5.136;2023-06-26T06:52:44;6.95;;;3.63;;
64199;SDS011;50516;52.272;5.136;2023-06-26T06:55:10;7.47;;;3.88;;
64199;SDS011;50516;52.272;5.136;2023-06-26T06:57:35;8.63;;;4.07;;
64199;SDS011;50516;52.272;5.136;2023-06-26T07:00:07;7.53;;;4.07;;
64199;SDS011;50516;52.272;5.136;2023-06-26T07:02:38;7.78;;;3.90;;
64199;SDS011;50516;52.272;5.136;2023-06-26T07:05:04;11.48;;;4.28;;
64199;SDS011;50516;52.272;5.136;2023-06-26T07:07:31;7.35;;;3.83;;
64199;SDS011;50516;52.272;5.136;2023-06-26T07:10:10;12.23;;;3.95;;
64199;SDS011;50516;52.272;5.136;2023-06-26T07:12:38;8.18;;;3.97;;
64199;SDS011;50516;52.272;5.136;2023-06-26T07:15:04;7.93;;;3.80;;
64199;SDS011;50516;52.272;5.136;2023-06-26T07:17:33;6.82;;;3.72;;
64199;SDS011;50516;52.272;5.136;2023-06-26T07:19:59;11.27;;;3.72;;
64199;SDS011;50516;52.272;5.136;2023-06-26T07:22:29;9.35;;;4.03;;
64199;SDS011;50516;52.272;5.136;2023-06-26T07:24:54;9.15;;;3.78;;
64199;SDS011;50516;52.272;5.136;2023-06-26T07:27:20;8.07;;;4.13;;
64199;SDS011;50516;52.272;5.136;2023-06-26T07:29:45;6.97;;;3.65;;
64199;SDS011;50516;52.272;5.136;2023-06-26T07:32:11;8.07;;;3.90;;
64199;SDS011;50516;52.272;5.136;2023-06-26T07:34:39;11.40;;;4.55;;
64199;SDS011;50516;52.272;5.136;2023-06-26T07:37:04;6.03;;;3.80;;
64199;SDS011;50516;52.272;5.136;2023-06-26T07:39:30;9.18;;;3.63;;
64199;SDS011;50516;52.272;5.136;2023-06-26T07:41:55;6.95;;;3.78;;
64199;SDS011;50516;52.272;5.136;2023-06-26T07:44:23;7.35;;;3.40;;
64199;SDS011;50516;52.272;5.136;2023-06-26T07:46:48;9.85;;;4.18;;
64199;SDS011;50516;52.272;5.136;2023-06-26T07:49:14;11.00;;;4.03;;
64199;SDS011;50516;52.272;5.136;2023-06-26T07:51:39;8.07;;;3.40;;
64199;SDS011;50516;52.272;5.136;2023-06-26T07:54:04;9.20;;;3.38;;
64199;SDS011;50516;52.272;5.136;2023-06-26T07:56:30;12.80;;;3.60;;
64199;SDS011;50516;52.272;5.136;2023-06-26T07:58:55;7.05;;;3.22;;
64199;SDS011;50516;52.272;5.136;2023-06-26T08:01:23;10.32;;;3.88;;
64199;SDS011;50516;52.272;5.136;2023-06-26T08:03:49;6.97;;;3.70;;
64199;SDS011;50516;52.272;5.136;2023-06-26T08:06:15;11.27;;;3.85;;
64199;SDS011;50516;52.272;5.136;2023-06-26T08:08:40;7.07;;;3.40;;
64199;SDS011;50516;52.272;5.136;2023-06-26T08:11:06;9.38;;;3.25;;
64199;SDS011;50516;52.272;5.136;2023-06-26T08:13:33;7.45;;;2.88;;
64199;SDS011;50516;52.272;5.136;2023-06-26T08:15:59;9.93;;;3.10;;
64199;SDS011;50516;52.272;5.136;2023-06-26T08:18:24;8.73;;;3.60;;
64199;SDS011;50516;52.272;5.136;2023-06-26T08:20:49;14.80;;;3.35;;
64199;SDS011;50516;52.272;5.136;2023-06-26T08:23:15;6.05;;;3.28;;
64199;SDS011;50516;52.272;5.136;2023-06-26T08:25:40;10.35;;;3.17;;
64199;SDS011;50516;52.272;5.136;2023-06-26T08:28:05;11.07;;;3.40;;
64199;SDS011;50516;52.272;5.136;2023-06-26T08:30:31;10.93;;;3.50;;
64199;SDS011;50516;52.272;5.136;2023-06-26T08:32:57;10.90;;;3.50;;
64199;SDS011;50516;52.272;5.136;2023-06-26T08:35:22;9.13;;;3.25;;
64199;SDS011;50516;52.272;5.136;2023-06-26T08:37:48;10.00;;;3.15;;
64199;SDS011;50516;52.272;5.136;2023-06-26T08:40:16;9.10;;;4.10;;
64199;SDS011;50516;52.272;5.136;2023-06-26T08:42:44;7.82;;;3.10;;
64199;SDS011;50516;52.272;5.136;2023-06-26T08:45:09;5.57;;;2.78;;
64199;SDS011;50516;52.272;5.136;2023-06-26T08:47:35;9.73;;;3.40;;
64199;SDS011;50516;52.272;5.136;2023-06-26T08:52:46;10.63;;;3.40;;
64199;SDS011;50516;52.272;5.136;2023-06-26T08:55:15;7.13;;;3.17;;
64199;SDS011;50516;52.272;5.136;2023-06-26T08:57:43;7.82;;;3.13;;
64199;SDS011;50516;52.272;5.136;2023-06-26T09:00:08;5.70;;;3.00;;
64199;SDS011;50516;52.272;5.136;2023-06-26T09:02:38;6.43;;;3.30;;
64199;SDS011;50516;52.272;5.136;2023-06-26T09:05:04;8.77;;;2.72;;
64199;SDS011;50516;52.272;5.136;2023-06-26T09:07:30;7.63;;;2.97;;
64199;SDS011;50516;52.272;5.136;2023-06-26T09:09:55;6.53;;;3.08;;
64199;SDS011;50516;52.272;5.136;2023-06-26T09:12:21;11.52;;;3.60;;
64199;SDS011;50516;52.272;5.136;2023-06-26T09:14:47;8.32;;;3.38;;
64199;SDS011;50516;52.272;5.136;2023-06-26T09:17:12;8.90;;;3.63;;
64199;SDS011;50516;52.272;5.136;2023-06-26T09:19:38;8.05;;;3.05;;
64199;SDS011;50516;52.272;5.136;2023-06-26T09:22:03;12.10;;;3.40;;
64199;SDS011;50516;52.272;5.136;2023-06-26T09:24:29;7.28;;;2.83;;
64199;SDS011;50516;52.272;5.136;2023-06-26T09:26:55;6.35;;;3.20;;
64199;SDS011;50516;52.272;5.136;2023-06-26T09:29:23;6.53;;;3.40;;
64199;SDS011;50516;52.272;5.136;2023-06-26T09:31:49;5.85;;;3.25;;
64199;SDS011;50516;52.272;5.136;2023-06-26T09:34:16;7.30;;;3.22;;
64199;SDS011;50516;52.272;5.136;2023-06-26T09:36:42;4.65;;;2.67;;
64199;SDS011;50516;52.272;5.136;2023-06-26T09:39:11;7.40;;;2.90;;
64199;SDS011;50516;52.272;5.136;2023-06-26T09:41:43;7.85;;;3.33;;
64199;SDS011;50516;52.272;5.136;2023-06-26T09:44:10;6.95;;;2.85;;
64199;SDS011;50516;52.272;5.136;2023-06-26T09:46:37;6.65;;;2.45;;
64199;SDS011;50516;52.272;5.136;2023-06-26T09:49:09;7.38;;;3.05;;
64199;SDS011;50516;52.272;5.136;2023-06-26T09:51:37;11.43;;;3.13;;
64199;SDS011;50516;52.272;5.136;2023-06-26T09:54:04;9.25;;;2.50;;
64199;SDS011;50516;52.272;5.136;2023-06-26T09:56:31;4.63;;;2.53;;
64199;SDS011;50516;52.272;5.136;2023-06-26T09:59:00;6.82;;;2.58;;
64199;SDS011;50516;52.272;5.136;2023-06-26T10:01:27;5.22;;;2.40;;
64199;SDS011;50516;52.272;5.136;2023-06-26T10:03:53;6.40;;;2.58;;
64199;SDS011;50516;52.272;5.136;2023-06-26T10:06:28;10.07;;;2.90;;
64199;SDS011;50516;52.272;5.136;2023-06-26T10:08:58;5.55;;;2.20;;
64199;SDS011;50516;52.272;5.136;2023-06-26T10:11:25;7.60;;;2.65;;
64199;SDS011;50516;52.272;5.136;2023-06-26T10:13:59;6.55;;;2.50;;
64199;SDS011;50516;52.272;5.136;2023-06-26T10:16:30;5.57;;;2.60;;
64199;SDS011;50516;52.272;5.136;2023-06-26T10:18:58;6.25;;;2.58;;
64199;SDS011;50516;52.272;5.136;2023-06-26T10:21:27;4.40;;;2.53;;
64199;SDS011;50516;52.272;5.136;2023-06-26T10:23:56;5.43;;;2.60;;
64199;SDS011;50516;52.272;5.136;2023-06-26T10:26:25;9.77;;;3.20;;
64199;SDS011;50516;52.272;5.136;2023-06-26T10:28:53;6.95;;;2.50;;
64199;SDS011;50516;52.272;5.136;2023-06-26T10:31:22;7.60;;;2.33;;
64199;SDS011;50516;52.272;5.136;2023-06-26T10:33:51;5.80;;;2.58;;
64199;SDS011;50516;52.272;5.136;2023-06-26T10:36:19;4.72;;;2.25;;
64199;SDS011;50516;52.272;5.136;2023-06-26T10:38:55;10.25;;;3.05;;
64199;SDS011;50516;52.272;5.136;2023-06-26T10:41:24;6.47;;;2.63;;
64199;SDS011;50516;52.272;5.136;2023-06-26T10:44:11;5.47;;;2.38;;
64199;SDS011;50516;52.272;5.136;2023-06-26T10:46:53;5.03;;;2.50;;
64199;SDS011;50516;52.272;5.136;2023-06-26T10:49:29;6.97;;;2.90;;
64199;SDS011;50516;52.272;5.136;2023-06-26T10:51:55;5.28;;;2.60;;
64199;SDS011;50516;52.272;5.136;2023-06-26T10:54:28;6.30;;;3.10;;
64199;SDS011;50516;52.272;5.136;2023-06-26T10:56:55;6.15;;;3.17;;
64199;SDS011;50516;52.272;5.136;2023-06-26T10:59:25;4.93;;;2.45;;
64199;SDS011;50516;52.272;5.136;2023-06-26T11:01:55;8.05;;;2.47;;
64199;SDS011;50516;52.272;5.136;2023-06-26T11:04:38;5.68;;;2.58;;
64199;SDS011;50516;52.272;5.136;2023-06-26T11:15:10;7.90;;;2.40;;
64199;SDS011;50516;52.272;5.136;2023-06-26T11:17:39;8.93;;;2.63;;
64199;SDS011;50516;52.272;5.136;2023-06-26T11:20:07;6.43;;;2.50;;
64199;SDS011;50516;52.272;5.136;2023-06-26T11:22:34;5.85;;;2.47;;
64199;SDS011;50516;52.272;5.136;2023-06-26T11:25:04;11.52;;;2.38;;
64199;SDS011;50516;52.272;5.136;2023-06-26T11:30:10;7.25;;;2.17;;
64199;SDS011;50516;52.272;5.136;2023-06-26T11:32:50;6.50;;;2.25;;
64199;SDS011;50516;52.272;5.136;2023-06-26T11:35:24;9.05;;;2.40;;
64199;SDS011;50516;52.272;5.136;2023-06-26T11:37:57;8.93;;;2.22;;
64199;SDS011;50516;52.272;5.136;2023-06-26T11:40:25;9.45;;;2.38;;
64199;SDS011;50516;52.272;5.136;2023-06-26T11:42:57;5.60;;;2.70;;
64199;SDS011;50516;52.272;5.136;2023-06-26T11:45:23;4.88;;;2.20;;
64199;SDS011;50516;52.272;5.136;2023-06-26T11:47:49;9.35;;;2.63;;
64199;SDS011;50516;52.272;5.136;2023-06-26T11:50:15;5.25;;;2.05;;
64199;SDS011;50516;52.272;5.136;2023-06-26T11:52:42;5.50;;;2.13;;
64199;SDS011;50516;52.272;5.136;2023-06-26T11:55:08;7.22;;;2.35;;
64199;SDS011;50516;52.272;5.136;2023-06-26T11:57:33;6.57;;;2.15;;
64199;SDS011;50516;52.272;5.136;2023-06-26T12:00:09;5.40;;;2.15;;
64199;SDS011;50516;52.272;5.136;2023-06-26T12:02:42;5.95;;;2.55;;
64199;SDS011;50516;52.272;5.136;2023-06-26T12:05:09;7.68;;;2.42;;
64199;SDS011;50516;52.272;5.136;2023-06-26T12:07:35;4.95;;;2.40;;
64199;SDS011;50516;52.272;5.136;2023-06-26T12:10:01;6.30;;;2.20;;
64199;SDS011;50516;52.272;5.136;2023-06-26T12:12:28;6.72;;;2.70;;
64199;SDS011;50516;52.272;5.136;2023-06-26T12:14:56;4.03;;;2.20;;
64199;SDS011;50516;52.272;5.136;2023-06-26T12:17:23;4.43;;;2.08;;
64199;SDS011;50516;52.272;5.136;2023-06-26T12:19:50;7.32;;;2.10;;
64199;SDS011;50516;52.272;5.136;2023-06-26T12:22:16;5.38;;;2.50;;
64199;SDS011;50516;52.272;5.136;2023-06-26T12:24:45;14.10;;;3.28;;
64199;SDS011;50516;52.272;5.136;2023-06-26T12:27:12;5.78;;;2.40;;
64199;SDS011;50516;52.272;5.136;2023-06-26T12:29:46;4.85;;;2.38;;
64199;SDS011;50516;52.272;5.136;2023-06-26T12:32:15;5.70;;;2.28;;
64199;SDS011;50516;52.272;5.136;2023-06-26T12:34:41;8.60;;;2.80;;
64199;SDS011;50516;52.272;5.136;2023-06-26T12:37:07;6.57;;;2.25;;
64199;SDS011;50516;52.272;5.136;2023-06-26T12:39:46;6.93;;;3.10;;
64199;SDS011;50516;52.272;5.136;2023-06-26T12:42:17;5.75;;;2.67;;
64199;SDS011;50516;52.272;5.136;2023-06-26T12:44:43;6.07;;;2.70;;
64199;SDS011;50516;52.272;5.136;2023-06-26T12:47:09;5.00;;;2.30;;
64199;SDS011;50516;52.272;5.136;2023-06-26T12:49:39;7.35;;;2.63;;
64199;SDS011;50516;52.272;5.136;2023-06-26T12:52:10;8.73;;;2.30;;
64199;SDS011;50516;52.272;5.136;2023-06-26T12:54:37;4.30;;;2.28;;
64199;SDS011;50516;52.272;5.136;2023-06-26T12:57:04;7.32;;;2.70;;
64199;SDS011;50516;52.272;5.136;2023-06-26T12:59:36;6.38;;;2.25;;
64199;SDS011;50516;52.272;5.136;2023-06-26T13:02:02;4.47;;;2.55;;
64199;SDS011;50516;52.272;5.136;2023-06-26T13:04:28;7.22;;;2.30;;
64199;SDS011;50516;52.272;5.136;2023-06-26T13:06:54;7.18;;;2.70;;
64199;SDS011;50516;52.272;5.136;2023-06-26T13:09:20;6.22;;;2.40;;
64199;SDS011;50516;52.272;5.136;2023-06-26T13:11:46;4.28;;;2.17;;
64199;SDS011;50516;52.272;5.136;2023-06-26T13:14:12;6.03;;;2.88;;
64199;SDS011;50516;52.272;5.136;2023-06-26T13:16:37;6.03;;;2.10;;
64199;SDS011;50516;52.272;5.136;2023-06-26T13:19:04;5.35;;;2.63;;
64199;SDS011;50516;52.272;5.136;2023-06-26T13:21:29;6.55;;;2.35;;
64199;SDS011;50516;52.272;5.136;2023-06-26T13:23:55;7.60;;;3.00;;
64199;SDS011;50516;52.272;5.136;2023-06-26T13:26:21;6.70;;;2.47;;
64199;SDS011;50516;52.272;5.136;2023-06-26T13:28:47;5.30;;;2.20;;
64199;SDS011;50516;52.272;5.136;2023-06-26T13:31:14;4.28;;;2.20;;
64199;SDS011;50516;52.272;5.136;2023-06-26T13:33:39;5.80;;;2.42;;
64199;SDS011;50516;52.272;5.136;2023-06-26T13:36:05;7.65;;;2.42;;
64199;SDS011;50516;52.272;5.136;2023-06-26T13:38:32;5.70;;;2.58;;
64199;SDS011;50516;52.272;5.136;2023-06-26T13:40:58;4.88;;;2.00;;
64199;SDS011;50516;52.272;5.136;2023-06-26T13:43:25;6.32;;;2.63;;
64199;SDS011;50516;52.272;5.136;2023-06-26T13:45:51;4.22;;;2.28;;
64199;SDS011;50516;52.272;5.136;2023-06-26T13:48:16;5.75;;;2.20;;
64199;SDS011;50516;52.272;5.136;2023-06-26T13:50:42;9.18;;;2.10;;
64199;SDS011;50516;52.272;5.136;2023-06-26T13:53:08;12.77;;;2.22;;
64199;SDS011;50516;52.272;5.136;2023-06-26T13:55:36;8.02;;;2.42;;
64199;SDS011;50516;52.272;5.136;2023-06-26T13:58:03;4.85;;;1.92;;
64199;SDS011;50516;52.272;5.136;2023-06-26T14:00:32;4.60;;;2.13;;
64199;SDS011;50516;52.272;5.136;2023-06-26T14:03:02;7.82;;;2.40;;
64199;SDS011;50516;52.272;5.136;2023-06-26T14:05:31;5.78;;;2.50;;
64199;SDS011;50516;52.272;5.136;2023-06-26T14:08:01;5.90;;;2.65;;
64199;SDS011;50516;52.272;5.136;2023-06-26T14:10:31;2.83;;;1.60;;
64199;SDS011;50516;52.272;5.136;2023-06-26T14:12:58;5.10;;;2.28;;
64199;SDS011;50516;52.272;5.136;2023-06-26T14:15:23;5.05;;;2.15;;
64199;SDS011;50516;52.272;5.136;2023-06-26T14:17:48;4.97;;;2.00;;
64199;SDS011;50516;52.272;5.136;2023-06-26T14:20:15;3.97;;;2.38;;
64199;SDS011;50516;52.272;5.136;2023-06-26T14:22:41;6.07;;;2.20;;
64199;SDS011;50516;52.272;5.136;2023-06-26T14:25:08;9.82;;;2.30;;
64199;SDS011;50516;52.272;5.136;2023-06-26T14:27:38;6.32;;;2.28;;
64199;SDS011;50516;52.272;5.136;2023-06-26T14:30:03;5.13;;;2.08;;
64199;SDS011;50516;52.272;5.136;2023-06-26T14:32:29;7.05;;;2.17;;
64199;SDS011;50516;52.272;5.136;2023-06-26T14:34:55;5.60;;;2.58;;
64199;SDS011;50516;52.272;5.136;2023-06-26T14:37:21;3.83;;;2.15;;
64199;SDS011;50516;52.272;5.136;2023-06-26T14:39:47;5.55;;;2.50;;
64199;SDS011;50516;52.272;5.136;2023-06-26T14:42:12;4.93;;;2.28;;
64199;SDS011;50516;52.272;5.136;2023-06-26T14:44:37;4.68;;;1.90;;
64199;SDS011;50516;52.272;5.136;2023-06-26T14:47:03;4.60;;;2.00;;
64199;SDS011;50516;52.272;5.136;2023-06-26T14:49:29;4.38;;;2.35;;
64199;SDS011;50516;52.272;5.136;2023-06-26T14:51:54;6.00;;;2.47;;
64199;SDS011;50516;52.272;5.136;2023-06-26T14:54:20;7.10;;;2.60;;
64199;SDS011;50516;52.272;5.136;2023-06-26T14:56:45;5.80;;;2.13;;
64199;SDS011;50516;52.272;5.136;2023-06-26T14:59:11;4.63;;;2.13;;
64199;SDS011;50516;52.272;5.136;2023-06-26T15:01:37;4.78;;;2.13;;
64199;SDS011;50516;52.272;5.136;2023-06-26T15:04:03;4.97;;;2.30;;
64199;SDS011;50516;52.272;5.136;2023-06-26T15:06:28;5.18;;;2.33;;
64199;SDS011;50516;52.272;5.136;2023-06-26T15:08:53;5.50;;;2.50;;
64199;SDS011;50516;52.272;5.136;2023-06-26T15:11:21;5.85;;;2.13;;